Time;durP1;ratioP1;P1;durP2;ratioP2;P2;SDS_P1;SDS_P2;PMS_P1;PMS_P2;Temp;Humidity;BMP_temperature;BMP_pressure;BME280_temperature;BME280_humidity;BME280_pressure;Samples;Min_cycle;Max_cycle;Signal;HPM_P1;HPM_P2
2020/12/02 00:02:20;;;;;;;14.10;11.37;;;;;;;;;;5073474;28;20203;-58
2020/12/02 00:04:47;;;;;;;12.30;9.97;;;;;;;;;;5075748;28;20184;-59
2020/12/02 00:07:13;;;;;;;12.30;10.90;;;;;;;;;;5075630;28;20682;-58
2020/12/02 00:09:39;;;;;;;13.00;10.17;;;;;;;;;;5084326;28;20214;-58
2020/12/02 00:12:05;;;;;;;14.43;10.73;;;;;;;;;;5084490;28;20216;-57
2020/12/02 00:14:32;;;;;;;12.37;9.70;;;;;;;;;;5074633;28;20255;-58
2020/12/02 00:16:58;;;;;;;13.93;10.57;;;;;;;;;;5077942;28;20177;-59
2020/12/02 00:19:24;;;;;;;12.00;10.40;;;;;;;;;;5092573;28;20590;-57
2020/12/02 00:22:00;;;;;;;11.67;10.23;;;;;;;;;;5079035;28;20215;-59
2020/12/02 00:24:26;;;;;;;12.07;10.53;;;;;;;;;;5081893;28;20194;-58
2020/12/02 00:26:52;;;;;;;11.87;9.33;;;;;;;;;;5082635;28;20179;-57
2020/12/02 00:29:18;;;;;;;11.33;10.03;;;;;;;;;;5082886;28;20185;-57
2020/12/02 00:31:44;;;;;;;12.23;9.57;;;;;;;;;;5079056;28;20678;-56
2020/12/02 00:34:10;;;;;;;10.50;9.27;;;;;;;;;;5085734;28;20184;-58
2020/12/02 00:36:38;;;;;;;10.80;9.70;;;;;;;;;;5075731;28;20654;-58
2020/12/02 00:39:04;;;;;;;10.20;8.30;;;;;;;;;;5070971;28;20187;-56
2020/12/02 00:41:30;;;;;;;9.23;8.07;;;;;;;;;;5071371;28;20196;-57
2020/12/02 00:43:56;;;;;;;10.23;8.20;;;;;;;;;;5069043;28;20233;-59
2020/12/02 00:46:22;;;;;;;10.73;8.43;;;;;;;;;;5071290;28;20537;-57
2020/12/02 00:48:52;;;;;;;11.87;8.87;;;;;;;;;;5070861;28;20177;-57
2020/12/02 00:51:18;;;;;;;10.73;8.13;;;;;;;;;;5087596;28;20192;-57
2020/12/02 00:53:44;;;;;;;9.40;8.40;;;;;;;;;;5091475;28;20634;-57
2020/12/02 00:56:11;;;;;;;9.37;8.07;;;;;;;;;;5091455;28;20207;-56
2020/12/02 00:58:46;;;;;;;10.03;7.90;;;;;;;;;;5078281;28;20196;-57
2020/12/02 01:01:14;;;;;;;9.43;8.30;;;;;;;;;;5075106;28;20265;-58
2020/12/02 01:03:41;;;;;;;8.77;7.37;;;;;;;;;;5071509;28;20196;-57
2020/12/02 01:06:08;;;;;;;8.70;7.40;;;;;;;;;;5071126;28;20180;-58
2020/12/02 01:08:38;;;;;;;8.97;6.47;;;;;;;;;;5070560;28;20219;-58
2020/12/02 01:11:09;;;;;;;8.67;7.30;;;;;;;;;;5069561;28;20196;-57
2020/12/02 01:13:36;;;;;;;8.60;7.27;;;;;;;;;;5071142;28;20259;-59
2020/12/02 01:16:04;;;;;;;8.73;7.47;;;;;;;;;;5070840;28;20180;-59
2020/12/02 01:18:30;;;;;;;8.33;7.20;;;;;;;;;;5070894;28;20255;-58
2020/12/02 01:21:08;;;;;;;8.40;7.03;;;;;;;;;;5070715;28;20181;-60
2020/12/02 01:23:35;;;;;;;8.23;6.80;;;;;;;;;;5071376;28;20160;-57
2020/12/02 01:26:02;;;;;;;7.20;6.50;;;;;;;;;;5070886;28;20167;-58
2020/12/02 01:28:31;;;;;;;7.73;6.80;;;;;;;;;;5068785;28;20218;-58
2020/12/02 01:30:58;;;;;;;7.83;7.00;;;;;;;;;;5070327;28;20200;-59
2020/12/02 01:33:24;;;;;;;8.03;6.67;;;;;;;;;;5075668;28;20184;-58
2020/12/02 01:35:51;;;;;;;6.80;6.10;;;;;;;;;;5070865;28;20168;-61
2020/12/02 01:38:20;;;;;;;6.57;5.90;;;;;;;;;;5070518;28;20190;-57
2020/12/02 01:40:46;;;;;;;7.63;6.20;;;;;;;;;;5071161;28;20192;-57
2020/12/02 01:43:13;;;;;;;8.23;6.03;;;;;;;;;;5070672;28;20248;-58
2020/12/02 01:45:41;;;;;;;6.20;5.57;;;;;;;;;;5070661;28;20181;-57
2020/12/02 01:48:26;;;;;;;6.07;5.47;;;;;;;;;;5076982;28;20191;-60
2020/12/02 01:50:58;;;;;;;6.90;6.30;;;;;;;;;;5089803;28;20534;-60
2020/12/02 01:53:27;;;;;;;5.87;5.13;;;;;;;;;;5088607;28;20270;-57
2020/12/02 01:55:59;;;;;;;6.70;5.57;;;;;;;;;;5091515;28;20281;-57
2020/12/02 01:58:48;;;;;;;7.77;5.90;;;;;;;;;;5085420;28;20216;-58
2020/12/02 02:01:37;;;;;;;5.67;5.07;;;;;;;;;;5081974;28;20249;-58
2020/12/02 02:04:03;;;;;;;6.90;5.63;;;;;;;;;;5073520;28;20635;-57
2020/12/02 02:06:40;;;;;;;6.57;5.97;;;;;;;;;;5072140;28;20630;-58
2020/12/02 02:09:06;;;;;;;5.47;4.87;;;;;;;;;;5071633;28;20619;-58
2020/12/02 02:11:32;;;;;;;6.20;5.60;;;;;;;;;;5073110;28;20184;-58
2020/12/02 02:13:58;;;;;;;4.83;4.43;;;;;;;;;;5073100;28;20181;-56
2020/12/02 02:16:32;;;;;;;6.90;6.20;;;;;;;;;;5073815;28;20187;-59
2020/12/02 02:18:58;;;;;;;5.77;5.17;;;;;;;;;;5072612;28;20224;-58
2020/12/02 02:21:29;;;;;;;5.13;4.63;;;;;;;;;;5074614;28;20520;-58
2020/12/02 02:23:55;;;;;;;5.80;4.80;;;;;;;;;;5090694;28;20194;-57
2020/12/02 02:26:28;;;;;;;6.10;5.50;;;;;;;;;;5088328;28;20180;-58
2020/12/02 02:28:54;;;;;;;5.37;4.90;;;;;;;;;;5073021;28;20160;-57
2020/12/02 02:31:21;;;;;;;5.93;5.03;;;;;;;;;;5072715;28;20200;-58
2020/12/02 02:33:48;;;;;;;5.73;5.13;;;;;;;;;;5073254;28;20184;-59
2020/12/02 02:36:15;;;;;;;5.07;4.57;;;;;;;;;;5072927;28;20207;-58
2020/12/02 02:38:41;;;;;;;5.97;4.97;;;;;;;;;;5073443;28;20275;-58
2020/12/02 02:41:08;;;;;;;7.13;5.50;;;;;;;;;;5073316;28;20184;-58
2020/12/02 02:43:34;;;;;;;6.63;5.30;;;;;;;;;;5072321;28;20271;-57
2020/12/02 02:46:00;;;;;;;5.77;5.00;;;;;;;;;;5087489;28;20183;-57
2020/12/02 02:48:26;;;;;;;7.40;4.83;;;;;;;;;;5083697;28;20196;-59
2020/12/02 02:50:52;;;;;;;5.47;4.97;;;;;;;;;;5092678;28;20237;-58
2020/12/02 02:53:20;;;;;;;6.40;5.80;;;;;;;;;;5085983;28;20201;-58
2020/12/02 02:55:46;;;;;;;6.07;5.27;;;;;;;;;;5084499;28;20188;-59
2020/12/02 02:58:12;;;;;;;6.30;5.70;;;;;;;;;;5093662;28;20171;-57
2020/12/02 03:00:39;;;;;;;5.37;4.87;;;;;;;;;;5091376;28;20212;-58
2020/12/02 03:03:06;;;;;;;5.67;5.00;;;;;;;;;;5092611;28;20218;-57
2020/12/02 03:05:33;;;;;;;6.13;5.20;;;;;;;;;;5086183;28;20177;-58
2020/12/02 03:08:00;;;;;;;7.37;5.40;;;;;;;;;;5092888;28;20198;-57
2020/12/02 03:10:27;;;;;;;7.33;5.93;;;;;;;;;;5089924;28;20182;-58
2020/12/02 03:12:54;;;;;;;6.33;5.40;;;;;;;;;;5093257;28;20172;-58
2020/12/02 03:15:20;;;;;;;5.60;5.00;;;;;;;;;;5075693;28;20188;-57
2020/12/02 03:17:47;;;;;;;7.03;5.63;;;;;;;;;;5071881;28;20184;-59
2020/12/02 03:20:28;;;;;;;7.00;5.60;;;;;;;;;;5073834;28;20483;-57
2020/12/02 03:22:54;;;;;;;7.37;6.00;;;;;;;;;;5076345;28;20208;-56
2020/12/02 03:25:25;;;;;;;6.70;5.53;;;;;;;;;;5091489;28;20653;-57
2020/12/02 03:27:52;;;;;;;6.23;5.63;;;;;;;;;;5087068;28;20903;-58
2020/12/02 03:30:18;;;;;;;7.63;6.60;;;;;;;;;;5072503;28;20180;-58
2020/12/02 03:32:45;;;;;;;8.47;6.40;;;;;;;;;;5072858;28;20172;-58
2020/12/02 03:35:11;;;;;;;7.77;6.93;;;;;;;;;;5082199;28;20187;-58
2020/12/02 03:37:37;;;;;;;7.17;6.27;;;;;;;;;;5085919;28;20534;-58
2020/12/02 03:40:04;;;;;;;6.80;5.97;;;;;;;;;;5074779;28;20210;-58
2020/12/02 03:42:30;;;;;;;8.67;6.83;;;;;;;;;;5072397;28;20211;-57
2020/12/02 03:44:56;;;;;;;7.47;6.13;;;;;;;;;;5072005;28;20177;-56
2020/12/02 03:47:22;;;;;;;8.83;6.87;;;;;;;;;;5072762;28;20922;-57
2020/12/02 03:49:48;;;;;;;8.73;7.27;;;;;;;;;;5071105;28;20195;-57
2020/12/02 03:52:14;;;;;;;8.50;7.07;;;;;;;;;;5085166;28;20266;-58
2020/12/02 03:54:40;;;;;;;7.90;7.10;;;;;;;;;;5092278;28;20597;-58
2020/12/02 03:57:06;;;;;;;10.77;8.30;;;;;;;;;;5086949;28;20188;-58
2020/12/02 03:59:32;;;;;;;11.23;8.30;;;;;;;;;;5071486;28;20235;-59
2020/12/02 04:01:58;;;;;;;9.77;7.60;;;;;;;;;;5087579;28;20325;-58
2020/12/02 04:04:24;;;;;;;11.43;8.17;;;;;;;;;;5088373;28;20259;-60
2020/12/02 04:06:51;;;;;;;9.87;8.20;;;;;;;;;;5088701;28;20630;-58
2020/12/02 04:09:17;;;;;;;10.50;8.07;;;;;;;;;;5091779;28;20172;-57
2020/12/02 04:11:43;;;;;;;11.33;8.23;;;;;;;;;;5092177;28;20176;-57
2020/12/02 04:14:10;;;;;;;10.87;8.57;;;;;;;;;;5085313;28;20639;-57
2020/12/02 04:16:36;;;;;;;9.97;7.87;;;;;;;;;;5071637;28;20176;-58
2020/12/02 04:19:02;;;;;;;11.63;8.43;;;;;;;;;;5071052;28;20188;-58
2020/12/02 04:21:28;;;;;;;9.90;8.30;;;;;;;;;;5071261;28;20184;-57
2020/12/02 04:23:55;;;;;;;10.87;8.53;;;;;;;;;;5074045;28;20603;-58
2020/12/02 04:26:21;;;;;;;10.43;8.47;;;;;;;;;;5071388;28;20185;-58
2020/12/02 04:28:47;;;;;;;10.20;7.80;;;;;;;;;;5081097;28;20215;-58
2020/12/02 04:31:13;;;;;;;13.13;9.63;;;;;;;;;;5077582;28;20232;-57
2020/12/02 04:33:39;;;;;;;11.07;8.20;;;;;;;;;;5077981;28;20181;-58
2020/12/02 04:36:06;;;;;;;10.93;8.73;;;;;;;;;;5071463;28;20889;-57
2020/12/02 04:38:32;;;;;;;12.20;9.37;;;;;;;;;;5071679;28;20192;-58
2020/12/02 04:40:58;;;;;;;13.63;8.80;;;;;;;;;;5071393;28;20172;-57
2020/12/02 04:43:24;;;;;;;11.77;9.13;;;;;;;;;;5071381;28;20203;-59
2020/12/02 04:45:50;;;;;;;12.87;8.90;;;;;;;;;;5080736;28;20650;-58
2020/12/02 04:48:19;;;;;;;12.47;9.83;;;;;;;;;;5083893;28;20177;-58
2020/12/02 04:50:46;;;;;;;13.90;9.93;;;;;;;;;;5078984;28;20263;-58
2020/12/02 04:53:17;;;;;;;11.40;8.67;;;;;;;;;;5091072;28;20175;-58
2020/12/02 04:55:44;;;;;;;12.87;10.13;;;;;;;;;;5091436;28;20181;-58
2020/12/02 04:58:20;;;;;;;13.40;10.30;;;;;;;;;;5091430;28;20179;-58
2020/12/02 05:00:46;;;;;;;13.10;9.80;;;;;;;;;;5074868;28;21066;-58
2020/12/02 05:03:13;;;;;;;12.23;9.07;;;;;;;;;;5071207;28;20730;-57
2020/12/02 05:05:39;;;;;;;15.10;11.03;;;;;;;;;;5074057;28;20180;-60
2020/12/02 05:08:22;;;;;;;15.00;10.57;;;;;;;;;;5090107;28;20622;-58
2020/12/02 05:10:48;;;;;;;13.13;10.63;;;;;;;;;;5091112;28;20172;-58
2020/12/02 05:13:14;;;;;;;16.53;10.73;;;;;;;;;;5091255;28;20172;-57
2020/12/02 05:15:40;;;;;;;13.83;10.57;;;;;;;;;;5081759;28;20288;-58
2020/12/02 05:18:06;;;;;;;14.93;11.10;;;;;;;;;;5078486;28;20341;-57
2020/12/02 05:20:33;;;;;;;13.23;10.00;;;;;;;;;;5074970;28;20181;-58
2020/12/02 05:23:08;;;;;;;17.27;11.80;;;;;;;;;;5083602;28;20243;-58
2020/12/02 05:25:35;;;;;;;14.97;10.80;;;;;;;;;;5089819;28;20166;-58
2020/12/02 05:28:04;;;;;;;14.87;11.03;;;;;;;;;;5086135;28;20607;-58
2020/12/02 05:30:31;;;;;;;18.83;12.37;;;;;;;;;;5087249;28;20191;-60
2020/12/02 05:33:13;;;;;;;15.60;11.10;;;;;;;;;;5086524;28;20177;-60
2020/12/02 05:35:50;;;;;;;15.73;11.63;;;;;;;;;;5074972;28;20176;-59
2020/12/02 05:38:21;;;;;;;16.87;12.43;;;;;;;;;;5074762;28;20176;-58
2020/12/02 05:40:51;;;;;;;16.67;11.37;;;;;;;;;;5080370;28;20180;-57
2020/12/02 05:43:20;;;;;;;16.07;11.50;;;;;;;;;;5077932;28;20235;-57
2020/12/02 05:45:48;;;;;;;16.50;11.37;;;;;;;;;;5078147;28;20255;-58
2020/12/02 05:48:19;;;;;;;14.77;10.53;;;;;;;;;;5077227;28;20579;-59
2020/12/02 05:50:46;;;;;;;17.63;11.87;;;;;;;;;;5078425;28;20177;-59
2020/12/02 05:53:15;;;;;;;18.27;11.17;;;;;;;;;;5080145;28;20722;-58
2020/12/02 05:55:42;;;;;;;18.50;11.87;;;;;;;;;;5082262;28;20185;-58
2020/12/02 05:58:13;;;;;;;18.67;11.60;;;;;;;;;;5074371;28;20172;-60
2020/12/02 06:00:39;;;;;;;19.43;13.10;;;;;;;;;;5074180;28;20582;-57
2020/12/02 06:03:06;;;;;;;19.63;13.03;;;;;;;;;;5081216;28;20238;-60
2020/12/02 06:05:32;;;;;;;20.77;12.63;;;;;;;;;;5093446;28;20567;-58
2020/12/02 06:08:03;;;;;;;20.93;12.10;;;;;;;;;;5079137;28;20203;-59
2020/12/02 06:10:31;;;;;;;16.90;11.37;;;;;;;;;;5085433;28;20176;-57
2020/12/02 06:12:58;;;;;;;19.73;12.33;;;;;;;;;;5085289;28;20173;-58
2020/12/02 06:15:24;;;;;;;19.27;12.57;;;;;;;;;;5099184;28;20586;-58
2020/12/02 06:18:13;;;;;;;16.30;11.37;;;;;;;;;;5090898;28;20542;-59
2020/12/02 06:20:40;;;;;;;17.80;12.77;;;;;;;;;;5081016;28;20180;-59
2020/12/02 06:23:06;;;;;;;20.63;12.70;;;;;;;;;;5075059;28;20196;-59
2020/12/02 06:25:51;;;;;;;19.23;12.93;;;;;;;;;;5081174;28;20234;-58
2020/12/02 06:28:37;;;;;;;18.07;12.07;;;;;;;;;;5094001;28;20172;-57
2020/12/02 06:31:19;;;;;;;17.70;12.20;;;;;;;;;;5080058;28;20226;-58
2020/12/02 06:33:46;;;;;;;17.17;11.70;;;;;;;;;;5088410;28;20186;-58
2020/12/02 06:36:15;;;;;;;23.63;12.60;;;;;;;;;;5093157;28;20183;-58
2020/12/02 06:38:41;;;;;;;18.67;11.83;;;;;;;;;;5093234;28;20539;-58
2020/12/02 06:41:16;;;;;;;21.13;12.33;;;;;;;;;;5090821;28;20178;-58
2020/12/02 06:43:51;;;;;;;21.33;13.10;;;;;;;;;;5093169;28;20219;-58
2020/12/02 06:46:37;;;;;;;18.03;12.37;;;;;;;;;;5087297;28;20172;-57
2020/12/02 06:49:03;;;;;;;19.00;12.23;;;;;;;;;;5078781;28;20164;-58
2020/12/02 06:51:30;;;;;;;18.07;12.07;;;;;;;;;;5089918;28;20172;-58
2020/12/02 06:53:56;;;;;;;19.80;12.60;;;;;;;;;;5087048;28;20176;-58
2020/12/02 06:56:22;;;;;;;19.53;12.33;;;;;;;;;;5077970;28;20200;-58
2020/12/02 06:59:01;;;;;;;19.37;11.63;;;;;;;;;;5081507;28;20191;-59
2020/12/02 07:01:27;;;;;;;20.53;12.77;;;;;;;;;;5088842;28;20187;-58
2020/12/02 07:03:54;;;;;;;23.77;12.90;;;;;;;;;;5072547;28;20280;-59
2020/12/02 07:06:30;;;;;;;18.53;11.90;;;;;;;;;;5077381;28;20171;-59
2020/12/02 07:08:59;;;;;;;20.97;12.70;;;;;;;;;;5094387;28;20266;-60
2020/12/02 07:11:25;;;;;;;20.13;12.60;;;;;;;;;;5080277;28;20181;-57
2020/12/02 07:13:52;;;;;;;19.23;12.17;;;;;;;;;;5083965;28;20645;-59
2020/12/02 07:16:20;;;;;;;18.73;11.83;;;;;;;;;;5070977;28;20176;-60
2020/12/02 07:19:00;;;;;;;18.87;12.23;;;;;;;;;;5084254;28;20540;-59
2020/12/02 07:21:30;;;;;;;19.30;12.40;;;;;;;;;;5090017;28;20250;-58
2020/12/02 07:23:57;;;;;;;20.20;13.03;;;;;;;;;;5080071;28;20639;-58
2020/12/02 07:26:23;;;;;;;20.13;11.63;;;;;;;;;;5076208;28;20218;-58
2020/12/02 07:28:59;;;;;;;18.77;12.10;;;;;;;;;;5094954;28;20559;-58
2020/12/02 07:31:26;;;;;;;18.83;11.37;;;;;;;;;;5091614;28;20587;-57
2020/12/02 07:34:03;;;;;;;19.83;12.13;;;;;;;;;;5083879;28;20190;-58
2020/12/02 07:36:35;;;;;;;18.17;12.40;;;;;;;;;;5077444;28;20178;-58
2020/12/02 07:39:15;;;;;;;19.53;12.20;;;;;;;;;;5079419;28;20180;-57
2020/12/02 07:41:46;;;;;;;18.07;11.50;;;;;;;;;;5075012;28;20208;-58
2020/12/02 07:44:13;;;;;;;18.77;12.33;;;;;;;;;;5079503;28;20225;-59
2020/12/02 07:46:39;;;;;;;17.30;12.30;;;;;;;;;;5071394;28;20181;-59
2020/12/02 07:49:05;;;;;;;25.10;14.23;;;;;;;;;;5089742;28;20173;-58
2020/12/02 07:51:36;;;;;;;20.80;12.13;;;;;;;;;;5081281;28;20184;-58
2020/12/02 07:54:07;;;;;;;21.80;13.23;;;;;;;;;;5081926;28;20164;-59
2020/12/02 07:56:34;;;;;;;23.97;12.90;;;;;;;;;;5090999;28;20237;-58
2020/12/02 07:59:18;;;;;;;20.80;12.70;;;;;;;;;;5072292;28;20249;-61
2020/12/02 08:01:59;;;;;;;22.20;12.80;;;;;;;;;;5070980;28;20187;-58
2020/12/02 08:04:32;;;;;;;21.33;12.10;;;;;;;;;;5071332;28;20519;-57
2020/12/02 08:06:59;;;;;;;22.50;12.40;;;;;;;;;;5071283;28;20263;-57
2020/12/02 08:09:26;;;;;;;21.17;13.03;;;;;;;;;;5071011;28;20173;-57
2020/12/02 08:11:53;;;;;;;18.43;12.07;;;;;;;;;;5074577;28;20215;-57
2020/12/02 08:14:22;;;;;;;21.80;12.33;;;;;;;;;;5089918;28;20203;-57
2020/12/02 08:16:51;;;;;;;20.40;12.13;;;;;;;;;;5080288;28;20283;-58
2020/12/02 08:19:27;;;;;;;18.63;13.10;;;;;;;;;;5073870;28;20220;-59
2020/12/02 08:21:53;;;;;;;20.27;13.27;;;;;;;;;;5093267;28;20205;-58
2020/12/02 08:24:31;;;;;;;21.87;12.93;;;;;;;;;;5070853;28;20234;-58
2020/12/02 08:26:57;;;;;;;19.77;12.83;;;;;;;;;;5070118;28;20165;-59
2020/12/02 08:29:24;;;;;;;20.70;13.37;;;;;;;;;;5077898;28;20303;-57
2020/12/02 08:32:02;;;;;;;20.37;13.37;;;;;;;;;;5088984;28;20200;-58
2020/12/02 08:34:30;;;;;;;20.63;13.07;;;;;;;;;;5092278;28;20224;-59
2020/12/02 08:37:11;;;;;;;20.13;12.87;;;;;;;;;;5073074;28;20595;-58
2020/12/02 08:39:42;;;;;;;19.83;11.47;;;;;;;;;;5088487;28;20221;-58
2020/12/02 08:42:12;;;;;;;21.20;12.37;;;;;;;;;;5089942;28;20233;-58
2020/12/02 08:44:38;;;;;;;20.43;12.73;;;;;;;;;;5086052;28;20179;-58
2020/12/02 08:47:09;;;;;;;22.70;13.03;;;;;;;;;;5084502;28;20629;-58
2020/12/02 08:49:36;;;;;;;18.30;11.93;;;;;;;;;;5074440;28;20180;-58
2020/12/02 08:52:03;;;;;;;18.83;11.70;;;;;;;;;;5074507;28;20259;-58
2020/12/02 08:54:29;;;;;;;17.57;12.00;;;;;;;;;;5090603;28;20241;-57
2020/12/02 08:57:03;;;;;;;16.90;11.73;;;;;;;;;;5084069;28;20247;-56
2020/12/02 08:59:29;;;;;;;18.90;11.43;;;;;;;;;;5069840;28;20734;-58
2020/12/02 09:02:05;;;;;;;16.73;11.17;;;;;;;;;;5070495;28;20716;-58
2020/12/02 09:04:31;;;;;;;16.47;10.90;;;;;;;;;;5069995;28;20650;-58
2020/12/02 09:06:57;;;;;;;14.77;10.83;;;;;;;;;;5070214;28;20169;-59
2020/12/02 09:09:24;;;;;;;16.00;10.53;;;;;;;;;;5071130;28;20366;-58
2020/12/02 09:11:50;;;;;;;15.33;10.50;;;;;;;;;;5075869;28;20678;-59
2020/12/02 09:14:16;;;;;;;12.60;9.43;;;;;;;;;;5081309;28;20585;-58
2020/12/02 09:16:42;;;;;;;12.60;9.83;;;;;;;;;;5078333;28;20211;-60
2020/12/02 09:19:10;;;;;;;14.63;9.73;;;;;;;;;;5081637;28;20257;-59
2020/12/02 09:21:36;;;;;;;13.57;9.83;;;;;;;;;;5072070;28;20190;-57
2020/12/02 09:24:03;;;;;;;14.27;9.50;;;;;;;;;;5089799;28;20228;-59
2020/12/02 09:26:31;;;;;;;14.37;10.03;;;;;;;;;;5090375;28;20164;-59
2020/12/02 09:28:57;;;;;;;11.73;9.30;;;;;;;;;;5090162;28;20537;-58
2020/12/02 09:31:24;;;;;;;12.83;9.53;;;;;;;;;;5090308;28;20215;-58
2020/12/02 09:33:51;;;;;;;12.47;9.20;;;;;;;;;;5075305;28;20192;-58
2020/12/02 09:36:17;;;;;;;12.57;9.30;;;;;;;;;;5070050;28;20176;-57
2020/12/02 09:38:45;;;;;;;13.17;8.97;;;;;;;;;;5084797;28;20195;-59
2020/12/02 09:41:30;;;;;;;13.43;9.40;;;;;;;;;;5090140;28;20695;-58
2020/12/02 09:44:01;;;;;;;13.83;9.23;;;;;;;;;;5104332;28;20187;-58
2020/12/02 09:46:28;;;;;;;14.40;9.30;;;;;;;;;;5080094;28;20592;-58
2020/12/02 09:48:54;;;;;;;10.63;9.07;;;;;;;;;;5071123;28;20177;-59
2020/12/02 09:51:22;;;;;;;12.40;8.73;;;;;;;;;;5072439;28;20249;-58
2020/12/02 09:53:49;;;;;;;13.10;9.67;;;;;;;;;;5077251;28;20266;-58
2020/12/02 09:56:15;;;;;;;12.53;9.83;;;;;;;;;;5070166;28;20639;-58
2020/12/02 09:58:41;;;;;;;14.27;10.07;;;;;;;;;;5066475;28;20187;-58
2020/12/02 10:01:13;;;;;;;14.13;9.27;;;;;;;;;;5069288;28;20208;-58
2020/12/02 10:03:51;;;;;;;12.97;10.67;;;;;;;;;;5077551;28;20530;-58
2020/12/02 10:06:22;;;;;;;14.50;10.77;;;;;;;;;;5082839;28;20183;-58
2020/12/02 10:09:07;;;;;;;13.73;10.77;;;;;;;;;;5085679;28;20266;-58
2020/12/02 10:11:52;;;;;;;15.17;11.53;;;;;;;;;;5094030;28;20546;-59
2020/12/02 10:14:37;;;;;;;13.67;10.03;;;;;;;;;;5107615;28;20175;-59
2020/12/02 10:17:03;;;;;;;14.80;10.40;;;;;;;;;;5086280;28;20233;-59
2020/12/02 10:19:44;;;;;;;13.63;10.60;;;;;;;;;;5077750;28;20516;-57
2020/12/02 10:22:11;;;;;;;13.00;10.20;;;;;;;;;;5092410;28;20234;-58
2020/12/02 10:25:03;;;;;;;11.57;9.60;;;;;;;;;;5087110;28;20557;-59
2020/12/02 10:27:38;;;;;;;13.90;8.80;;;;;;;;;;5078633;28;20191;-58
2020/12/02 10:30:37;;;;;;;11.37;9.10;;;;;;;;;;5084159;28;20176;-59
2020/12/02 10:33:03;;;;;;;10.60;7.83;;;;;;;;;;5034562;28;20205;-60
2020/12/02 10:35:30;;;;;;;9.67;8.63;;;;;;;;;;5081379;28;20225;-59
2020/12/02 10:37:58;;;;;;;9.27;7.60;;;;;;;;;;5082155;28;20207;-57
2020/12/02 10:40:26;;;;;;;8.70;7.90;;;;;;;;;;5085832;28;20179;-57
2020/12/02 10:43:01;;;;;;;8.70;7.33;;;;;;;;;;5076438;28;20283;-58
2020/12/02 10:45:27;;;;;;;8.77;7.20;;;;;;;;;;5072529;28;20203;-58
2020/12/02 10:48:03;;;;;;;8.07;6.97;;;;;;;;;;5084207;28;20702;-61
2020/12/02 10:50:31;;;;;;;7.73;6.73;;;;;;;;;;5088029;28;20183;-58
2020/12/02 10:52:59;;;;;;;7.97;7.03;;;;;;;;;;5083997;28;20175;-57
2020/12/02 10:55:28;;;;;;;7.23;6.50;;;;;;;;;;5075250;28;20191;-58
2020/12/02 10:57:59;;;;;;;7.30;6.60;;;;;;;;;;5085419;28;20188;-58
2020/12/02 11:00:25;;;;;;;7.20;6.10;;;;;;;;;;5072127;28;20648;-58
2020/12/02 11:03:10;;;;;;;7.60;6.60;;;;;;;;;;5075030;28;20287;-59
2020/12/02 11:05:37;;;;;;;7.47;6.67;;;;;;;;;;5083644;28;20172;-58
2020/12/02 11:08:05;;;;;;;8.37;7.47;;;;;;;;;;5072350;28;20191;-58
2020/12/02 11:10:44;;;;;;;7.73;6.93;;;;;;;;;;5070965;28;20263;-58
2020/12/02 11:13:16;;;;;;;8.03;7.23;;;;;;;;;;5085058;28;20184;-59
2020/12/02 11:16:12;;;;;;;7.80;7.00;;;;;;;;;;5072395;28;20184;-57
2020/12/02 11:18:44;;;;;;;7.33;6.60;;;;;;;;;;5063213;28;20274;-58
2020/12/02 11:21:23;;;;;;;7.50;6.70;;;;;;;;;;5070902;28;20176;-58
2020/12/02 11:23:53;;;;;;;8.33;6.73;;;;;;;;;;5072913;28;20200;-59
2020/12/02 11:26:29;;;;;;;8.67;6.60;;;;;;;;;;5075019;28;20593;-59
2020/12/02 11:28:56;;;;;;;7.93;7.10;;;;;;;;;;5071343;28;20176;-59
2020/12/02 11:31:40;;;;;;;7.40;6.70;;;;;;;;;;5071854;28;20543;-59
2020/12/02 11:34:33;;;;;;;8.60;6.97;;;;;;;;;;5075061;28;20218;-58
2020/12/02 11:37:06;;;;;;;7.63;6.50;;;;;;;;;;5053793;28;20196;-60
2020/12/02 11:39:50;;;;;;;7.83;6.87;;;;;;;;;;5076475;28;20172;-59
2020/12/02 11:42:21;;;;;;;7.40;6.70;;;;;;;;;;5090940;28;20264;-57
2020/12/02 11:44:54;;;;;;;7.33;6.63;;;;;;;;;;5077888;28;20176;-58
2020/12/02 11:47:35;;;;;;;7.40;6.70;;;;;;;;;;5072628;28;20207;-60
2020/12/02 11:50:08;;;;;;;8.30;7.13;;;;;;;;;;5076059;28;20195;-59
2020/12/02 11:52:54;;;;;;;8.27;7.43;;;;;;;;;;5073624;28;20191;-58
2020/12/02 11:55:20;;;;;;;7.63;6.93;;;;;;;;;;5070695;28;20246;-59
2020/12/02 11:57:49;;;;;;;7.57;6.87;;;;;;;;;;5077183;28;20180;-58
2020/12/02 12:00:15;;;;;;;9.00;7.77;;;;;;;;;;5071510;28;20224;-59
2020/12/02 12:02:45;;;;;;;8.00;7.20;;;;;;;;;;5089071;28;20200;-59
2020/12/02 12:05:30;;;;;;;9.27;7.67;;;;;;;;;;5075752;28;20180;-60
2020/12/02 12:08:01;;;;;;;9.67;7.87;;;;;;;;;;5072175;28;20165;-59
2020/12/02 12:10:32;;;;;;;10.03;8.47;;;;;;;;;;5083618;28;20160;-59
2020/12/02 12:13:04;;;;;;;9.40;8.43;;;;;;;;;;5087858;28;20187;-59
2020/12/02 12:15:37;;;;;;;8.73;7.50;;;;;;;;;;5091638;28;20176;-58
2020/12/02 12:18:08;;;;;;;9.83;8.47;;;;;;;;;;5090559;28;20164;-59
2020/12/02 12:20:35;;;;;;;9.17;8.27;;;;;;;;;;5081533;28;20184;-59
2020/12/02 12:23:07;;;;;;;8.83;8.00;;;;;;;;;;5073634;28;20246;-59
2020/12/02 12:25:35;;;;;;;8.97;7.63;;;;;;;;;;5084695;28;20180;-58
2020/12/02 12:28:05;;;;;;;9.43;8.53;;;;;;;;;;5075290;28;20520;-58
2020/12/02 12:30:31;;;;;;;9.37;8.37;;;;;;;;;;5070908;28;20602;-60
2020/12/02 12:33:16;;;;;;;9.13;8.03;;;;;;;;;;5078691;28;20222;-59
2020/12/02 12:35:46;;;;;;;9.20;8.23;;;;;;;;;;5087304;28;20297;-59
2020/12/02 12:38:12;;;;;;;9.37;8.23;;;;;;;;;;5071679;28;20238;-59
2020/12/02 12:40:40;;;;;;;9.43;8.43;;;;;;;;;;5079573;28;20651;-59
2020/12/02 12:43:10;;;;;;;9.70;8.70;;;;;;;;;;5071526;28;20651;-58
2020/12/02 12:45:42;;;;;;;10.60;8.20;;;;;;;;;;5078792;28;20228;-58
2020/12/02 12:48:12;;;;;;;9.87;8.43;;;;;;;;;;5077945;28;20278;-58
2020/12/02 12:50:38;;;;;;;9.43;8.53;;;;;;;;;;5081693;28;20603;-59
2020/12/02 12:53:05;;;;;;;9.57;8.53;;;;;;;;;;5071401;28;20318;-59
2020/12/02 12:55:31;;;;;;;9.63;8.63;;;;;;;;;;5088368;28;20240;-61
2020/12/02 12:57:59;;;;;;;10.13;8.70;;;;;;;;;;5075369;28;20227;-58
2020/12/02 13:00:25;;;;;;;8.73;7.83;;;;;;;;;;5079086;28;20235;-58
2020/12/02 13:03:11;;;;;;;9.10;8.20;;;;;;;;;;5074932;28;20208;-59
2020/12/02 13:05:38;;;;;;;8.63;7.73;;;;;;;;;;5082557;28;20165;-57
2020/12/02 13:08:06;;;;;;;11.70;8.57;;;;;;;;;;5071052;28;20173;-59
2020/12/02 13:10:32;;;;;;;8.87;7.90;;;;;;;;;;5073288;28;20278;-59
2020/12/02 13:13:07;;;;;;;10.57;7.20;;;;;;;;;;5071001;28;20184;-59
2020/12/02 13:15:49;;;;;;;8.97;8.07;;;;;;;;;;5071374;28;20527;-59
2020/12/02 13:18:33;;;;;;;8.30;7.50;;;;;;;;;;5081695;28;20191;-59
2020/12/02 13:21:05;;;;;;;8.43;7.33;;;;;;;;;;5076115;28;20180;-58
2020/12/02 13:23:37;;;;;;;10.90;8.30;;;;;;;;;;5073879;28;20225;-60
2020/12/02 13:26:09;;;;;;;8.93;8.13;;;;;;;;;;5073170;28;20287;-59
2020/12/02 13:28:46;;;;;;;7.63;6.93;;;;;;;;;;5075915;28;20194;-59
2020/12/02 13:31:27;;;;;;;7.73;6.93;;;;;;;;;;5069374;28;20187;-60
2020/12/02 13:33:53;;;;;;;9.70;7.47;;;;;;;;;;5071962;28;20184;-58
2020/12/02 13:36:33;;;;;;;8.03;6.60;;;;;;;;;;5076057;28;20181;-59
2020/12/02 13:38:59;;;;;;;8.23;7.43;;;;;;;;;;5070247;28;20180;-58
2020/12/02 13:41:52;;;;;;;7.77;6.97;;;;;;;;;;5079468;28;20216;-59
2020/12/02 13:44:20;;;;;;;8.40;7.47;;;;;;;;;;5068560;28;20686;-59
2020/12/02 13:46:47;;;;;;;9.10;7.20;;;;;;;;;;5079665;28;20176;-59
2020/12/02 13:49:13;;;;;;;7.63;6.93;;;;;;;;;;5071938;28;20611;-58
2020/12/02 13:51:59;;;;;;;7.27;6.57;;;;;;;;;;5079838;28;20172;-58
2020/12/02 13:54:25;;;;;;;7.40;6.70;;;;;;;;;;5077443;28;20184;-60
2020/12/02 13:56:58;;;;;;;8.30;7.20;;;;;;;;;;5077460;28;20180;-59
2020/12/02 13:59:32;;;;;;;7.67;6.90;;;;;;;;;;5083785;28;20333;-59
2020/12/02 14:02:21;;;;;;;7.30;6.57;;;;;;;;;;5077299;28;20183;-59
2020/12/02 14:04:57;;;;;;;7.77;6.97;;;;;;;;;;5085516;28;20175;-57
2020/12/02 14:07:23;;;;;;;8.40;7.50;;;;;;;;;;5078042;28;20540;-59
2020/12/02 14:09:58;;;;;;;7.53;6.77;;;;;;;;;;5080861;28;20637;-59
2020/12/02 14:12:27;;;;;;;7.53;6.60;;;;;;;;;;5083825;28;20321;-59
2020/12/02 14:14:54;;;;;;;8.17;6.73;;;;;;;;;;5075077;28;20180;-59
2020/12/02 14:17:21;;;;;;;8.80;7.27;;;;;;;;;;5072772;28;20642;-58
2020/12/02 14:19:47;;;;;;;7.80;7.00;;;;;;;;;;5080464;28;20191;-61
2020/12/02 14:22:13;;;;;;;7.60;6.83;;;;;;;;;;5076054;28;20261;-59
2020/12/02 14:24:40;;;;;;;8.43;7.33;;;;;;;;;;5090052;28;20173;-60
2020/12/02 14:27:06;;;;;;;6.93;6.27;;;;;;;;;;5079527;28;21781;-59
2020/12/02 14:29:32;;;;;;;8.00;6.77;;;;;;;;;;5078421;28;20275;-59
2020/12/02 14:31:58;;;;;;;7.10;6.40;;;;;;;;;;5072917;28;20227;-59
2020/12/02 14:34:24;;;;;;;7.97;7.17;;;;;;;;;;5078984;28;20220;-58
2020/12/02 14:36:50;;;;;;;7.77;6.87;;;;;;;;;;5081521;28;20208;-59
2020/12/02 14:39:16;;;;;;;8.10;7.27;;;;;;;;;;5075988;28;20226;-61
2020/12/02 14:41:43;;;;;;;6.97;6.37;;;;;;;;;;5074227;28;20266;-61
2020/12/02 14:44:10;;;;;;;9.37;7.03;;;;;;;;;;5070547;28;20183;-59
2020/12/02 14:46:36;;;;;;;9.43;6.50;;;;;;;;;;5071352;28;20226;-59
2020/12/02 14:49:02;;;;;;;7.47;6.73;;;;;;;;;;5076488;28;20180;-59